La France, South Carolina
Current Conditions -  °F | °C
As of 9:54 PM on Friday 21 Nov 2014 (Local Time) from KCEU Reporting Station
Clear Clear  
Wind Chill: 45°   Ceiling: Unl
Heat Index: 45°   Visibility: 10mi
Dew Point: 25°   Wind: 3mph
Humidity: 46%   Direction: 20°NNE
Pressure: 30.45"   Gusts: NA
Location:  34.61°N, 82.77°W
Report Text: KCEU 220254Z AUTO 02003KT 10SM CLR 07/M04 A3045 RMK AO2 SLP312 T00721039 53016
Loading
Personal Weather Stations






























Interactive Weather Map New forecast layout! Learn more

10-Day Weather Forecast

Advertisements
Track Severe Weather on mobile